sensor_id;sensor_type;location;lat;lon;timestamp;P1;durP1;ratioP1;P2;durP2;ratioP2
41705;SDS011;27385;51.096;17.190;2024-01-30T00:00:56;31.20;;;10.00;;
41705;SDS011;27385;51.096;17.190;2024-01-30T00:03:51;32.80;;;11.70;;
41705;SDS011;27385;51.096;17.190;2024-01-30T00:06:42;31.50;;;11.00;;
41705;SDS011;27385;51.096;17.190;2024-01-30T00:09:33;29.20;;;11.60;;
41705;SDS011;27385;51.096;17.190;2024-01-30T00:12:24;32.60;;;11.70;;
41705;SDS011;27385;51.096;17.190;2024-01-30T00:15:15;31.90;;;10.90;;
41705;SDS011;27385;51.096;17.190;2024-01-30T00:18:06;31.70;;;11.00;;
41705;SDS011;27385;51.096;17.190;2024-01-30T00:20:57;32.60;;;11.80;;
41705;SDS011;27385;51.096;17.190;2024-01-30T00:23:48;38.10;;;12.60;;
41705;SDS011;27385;51.096;17.190;2024-01-30T00:26:39;35.20;;;13.60;;
41705;SDS011;27385;51.096;17.190;2024-01-30T00:29:30;35.40;;;13.30;;
41705;SDS011;27385;51.096;17.190;2024-01-30T00:32:21;35.20;;;12.80;;
41705;SDS011;27385;51.096;17.190;2024-01-30T00:35:12;37.00;;;12.40;;
41705;SDS011;27385;51.096;17.190;2024-01-30T00:38:03;39.40;;;14.30;;
41705;SDS011;27385;51.096;17.190;2024-01-30T00:40:56;35.00;;;12.60;;
41705;SDS011;27385;51.096;17.190;2024-01-30T00:43:46;33.10;;;14.10;;
41705;SDS011;27385;51.096;17.190;2024-01-30T00:46:37;31.40;;;12.10;;
41705;SDS011;27385;51.096;17.190;2024-01-30T00:52:17;28.40;;;11.50;;
41705;SDS011;27385;51.096;17.190;2024-01-30T00:55:08;29.10;;;11.80;;
41705;SDS011;27385;51.096;17.190;2024-01-30T00:57:59;32.10;;;12.90;;
41705;SDS011;27385;51.096;17.190;2024-01-30T01:00:50;36.30;;;13.80;;
41705;SDS011;27385;51.096;17.190;2024-01-30T01:03:41;34.20;;;13.00;;
41705;SDS011;27385;51.096;17.190;2024-01-30T01:06:32;33.80;;;12.00;;
41705;SDS011;27385;51.096;17.190;2024-01-30T01:09:23;28.40;;;10.70;;
41705;SDS011;27385;51.096;17.190;2024-01-30T01:12:15;30.80;;;10.60;;
41705;SDS011;27385;51.096;17.190;2024-01-30T01:15:07;32.40;;;12.50;;
41705;SDS011;27385;51.096;17.190;2024-01-30T01:17:59;28.00;;;9.60;;
41705;SDS011;27385;51.096;17.190;2024-01-30T01:20:50;22.90;;;9.50;;
41705;SDS011;27385;51.096;17.190;2024-01-30T01:23:41;27.60;;;9.40;;
41705;SDS011;27385;51.096;17.190;2024-01-30T01:26:32;30.30;;;9.00;;
41705;SDS011;27385;51.096;17.190;2024-01-30T01:29:23;30.30;;;10.60;;
41705;SDS011;27385;51.096;17.190;2024-01-30T01:32:16;32.60;;;12.70;;
41705;SDS011;27385;51.096;17.190;2024-01-30T01:35:07;32.80;;;11.70;;
41705;SDS011;27385;51.096;17.190;2024-01-30T01:37:59;34.10;;;12.00;;
41705;SDS011;27385;51.096;17.190;2024-01-30T01:40:50;31.80;;;10.50;;
41705;SDS011;27385;51.096;17.190;2024-01-30T01:43:41;29.60;;;10.80;;
41705;SDS011;27385;51.096;17.190;2024-01-30T01:46:33;32.40;;;10.40;;
41705;SDS011;27385;51.096;17.190;2024-01-30T01:49:25;32.30;;;11.30;;
41705;SDS011;27385;51.096;17.190;2024-01-30T01:52:17;35.40;;;12.10;;
41705;SDS011;27385;51.096;17.190;2024-01-30T01:55:08;30.90;;;11.70;;
41705;SDS011;27385;51.096;17.190;2024-01-30T01:58:00;36.70;;;12.60;;
41705;SDS011;27385;51.096;17.190;2024-01-30T02:00:52;38.80;;;12.50;;
41705;SDS011;27385;51.096;17.190;2024-01-30T02:03:43;37.40;;;12.60;;
41705;SDS011;27385;51.096;17.190;2024-01-30T02:06:34;36.30;;;12.70;;
41705;SDS011;27385;51.096;17.190;2024-01-30T02:09:26;36.20;;;13.00;;
41705;SDS011;27385;51.096;17.190;2024-01-30T02:12:17;41.60;;;12.70;;
41705;SDS011;27385;51.096;17.190;2024-01-30T02:15:08;35.90;;;10.40;;
41705;SDS011;27385;51.096;17.190;2024-01-30T02:18:02;32.20;;;10.50;;
41705;SDS011;27385;51.096;17.190;2024-01-30T02:20:54;33.20;;;9.70;;
41705;SDS011;27385;51.096;17.190;2024-01-30T02:23:49;32.10;;;11.10;;
41705;SDS011;27385;51.096;17.190;2024-01-30T02:26:41;33.10;;;11.20;;
41705;SDS011;27385;51.096;17.190;2024-01-30T02:29:33;34.10;;;11.80;;
41705;SDS011;27385;51.096;17.190;2024-01-30T02:32:25;38.90;;;12.40;;
41705;SDS011;27385;51.096;17.190;2024-01-30T02:35:16;39.30;;;14.50;;
41705;SDS011;27385;51.096;17.190;2024-01-30T02:38:07;43.70;;;14.90;;
41705;SDS011;27385;51.096;17.190;2024-01-30T02:40:59;51.80;;;17.00;;
41705;SDS011;27385;51.096;17.190;2024-01-30T02:43:50;49.50;;;17.00;;
41705;SDS011;27385;51.096;17.190;2024-01-30T02:46:41;45.60;;;17.20;;
41705;SDS011;27385;51.096;17.190;2024-01-30T02:49:32;36.30;;;13.60;;
41705;SDS011;27385;51.096;17.190;2024-01-30T02:52:23;40.60;;;14.00;;
41705;SDS011;27385;51.096;17.190;2024-01-30T02:55:14;38.40;;;12.20;;
41705;SDS011;27385;51.096;17.190;2024-01-30T02:58:06;42.80;;;14.40;;
41705;SDS011;27385;51.096;17.190;2024-01-30T03:00:57;40.80;;;13.80;;
41705;SDS011;27385;51.096;17.190;2024-01-30T03:03:48;39.40;;;14.50;;
41705;SDS011;27385;51.096;17.190;2024-01-30T03:06:44;42.50;;;15.70;;
41705;SDS011;27385;51.096;17.190;2024-01-30T03:09:36;37.60;;;14.10;;
41705;SDS011;27385;51.096;17.190;2024-01-30T03:12:28;53.00;;;19.60;;
41705;SDS011;27385;51.096;17.190;2024-01-30T03:15:19;48.20;;;17.90;;
41705;SDS011;27385;51.096;17.190;2024-01-30T03:18:11;51.20;;;20.40;;
41705;SDS011;27385;51.096;17.190;2024-01-30T03:23:51;47.10;;;17.10;;
41705;SDS011;27385;51.096;17.190;2024-01-30T03:26:42;47.40;;;17.50;;
41705;SDS011;27385;51.096;17.190;2024-01-30T03:29:33;47.20;;;16.50;;
41705;SDS011;27385;51.096;17.190;2024-01-30T03:32:24;52.20;;;16.90;;
41705;SDS011;27385;51.096;17.190;2024-01-30T03:35:15;52.10;;;17.70;;
41705;SDS011;27385;51.096;17.190;2024-01-30T03:38:07;54.00;;;17.70;;
41705;SDS011;27385;51.096;17.190;2024-01-30T03:40:58;58.60;;;21.70;;
41705;SDS011;27385;51.096;17.190;2024-01-30T03:43:49;58.70;;;21.30;;
41705;SDS011;27385;51.096;17.190;2024-01-30T03:46:41;53.10;;;18.20;;
41705;SDS011;27385;51.096;17.190;2024-01-30T03:49:31;59.40;;;19.10;;
41705;SDS011;27385;51.096;17.190;2024-01-30T03:52:22;44.70;;;19.00;;
41705;SDS011;27385;51.096;17.190;2024-01-30T03:55:13;62.80;;;21.80;;
41705;SDS011;27385;51.096;17.190;2024-01-30T03:58:05;61.20;;;22.90;;
41705;SDS011;27385;51.096;17.190;2024-01-30T04:00:56;66.40;;;24.70;;
41705;SDS011;27385;51.096;17.190;2024-01-30T04:03:47;72.60;;;26.00;;
41705;SDS011;27385;51.096;17.190;2024-01-30T04:06:38;67.10;;;24.10;;
41705;SDS011;27385;51.096;17.190;2024-01-30T04:09:29;67.80;;;23.30;;
41705;SDS011;27385;51.096;17.190;2024-01-30T04:12:20;72.30;;;27.30;;
41705;SDS011;27385;51.096;17.190;2024-01-30T04:15:12;96.30;;;35.40;;
41705;SDS011;27385;51.096;17.190;2024-01-30T04:18:04;106.40;;;39.10;;
41705;SDS011;27385;51.096;17.190;2024-01-30T04:20:55;133.00;;;48.70;;
41705;SDS011;27385;51.096;17.190;2024-01-30T04:23:46;138.30;;;53.90;;
41705;SDS011;27385;51.096;17.190;2024-01-30T04:26:37;138.50;;;54.20;;
41705;SDS011;27385;51.096;17.190;2024-01-30T04:29:27;105.00;;;38.60;;
41705;SDS011;27385;51.096;17.190;2024-01-30T04:32:20;89.30;;;35.20;;
41705;SDS011;27385;51.096;17.190;2024-01-30T04:35:11;80.50;;;31.90;;
41705;SDS011;27385;51.096;17.190;2024-01-30T04:38:02;72.60;;;29.20;;
41705;SDS011;27385;51.096;17.190;2024-01-30T04:40:53;69.30;;;26.00;;
41705;SDS011;27385;51.096;17.190;2024-01-30T04:43:44;69.10;;;27.00;;
41705;SDS011;27385;51.096;17.190;2024-01-30T04:46:35;57.50;;;24.60;;
41705;SDS011;27385;51.096;17.190;2024-01-30T04:49:26;73.60;;;26.70;;
41705;SDS011;27385;51.096;17.190;2024-01-30T04:52:18;66.40;;;24.20;;
41705;SDS011;27385;51.096;17.190;2024-01-30T04:55:09;68.20;;;26.10;;
41705;SDS011;27385;51.096;17.190;2024-01-30T04:58:00;70.40;;;25.60;;
41705;SDS011;27385;51.096;17.190;2024-01-30T05:00:51;65.70;;;23.00;;
41705;SDS011;27385;51.096;17.190;2024-01-30T05:03:42;58.80;;;22.00;;
41705;SDS011;27385;51.096;17.190;2024-01-30T05:06:34;59.50;;;21.20;;
41705;SDS011;27385;51.096;17.190;2024-01-30T05:09:25;64.00;;;22.80;;
41705;SDS011;27385;51.096;17.190;2024-01-30T05:12:16;71.60;;;22.40;;
41705;SDS011;27385;51.096;17.190;2024-01-30T05:15:08;60.10;;;20.70;;
41705;SDS011;27385;51.096;17.190;2024-01-30T05:17:59;57.20;;;21.30;;
41705;SDS011;27385;51.096;17.190;2024-01-30T05:20:51;64.90;;;23.60;;
41705;SDS011;27385;51.096;17.190;2024-01-30T05:23:42;60.60;;;21.70;;
41705;SDS011;27385;51.096;17.190;2024-01-30T05:26:33;57.20;;;19.80;;
41705;SDS011;27385;51.096;17.190;2024-01-30T05:32:13;44.50;;;18.00;;
41705;SDS011;27385;51.096;17.190;2024-01-30T05:35:04;45.90;;;15.80;;
41705;SDS011;27385;51.096;17.190;2024-01-30T05:37:55;46.40;;;19.40;;
41705;SDS011;27385;51.096;17.190;2024-01-30T05:40:46;47.20;;;19.50;;
41705;SDS011;27385;51.096;17.190;2024-01-30T05:43:39;49.00;;;16.70;;
41705;SDS011;27385;51.096;17.190;2024-01-30T05:46:32;50.70;;;16.80;;
41705;SDS011;27385;51.096;17.190;2024-01-30T05:49:24;52.10;;;17.60;;
41705;SDS011;27385;51.096;17.190;2024-01-30T05:52:15;46.20;;;17.20;;
41705;SDS011;27385;51.096;17.190;2024-01-30T05:55:07;49.60;;;17.20;;
41705;SDS011;27385;51.096;17.190;2024-01-30T05:57:59;45.50;;;16.90;;
41705;SDS011;27385;51.096;17.190;2024-01-30T06:00:50;47.10;;;17.80;;
41705;SDS011;27385;51.096;17.190;2024-01-30T06:03:41;44.10;;;16.00;;
41705;SDS011;27385;51.096;17.190;2024-01-30T06:06:32;38.70;;;14.80;;
41705;SDS011;27385;51.096;17.190;2024-01-30T06:09:23;42.80;;;14.40;;
41705;SDS011;27385;51.096;17.190;2024-01-30T06:12:14;38.90;;;14.50;;
41705;SDS011;27385;51.096;17.190;2024-01-30T06:15:06;49.80;;;19.10;;
41705;SDS011;27385;51.096;17.190;2024-01-30T06:17:58;45.20;;;17.80;;
41705;SDS011;27385;51.096;17.190;2024-01-30T06:20:49;40.80;;;16.40;;
41705;SDS011;27385;51.096;17.190;2024-01-30T06:23:40;46.10;;;17.00;;
41705;SDS011;27385;51.096;17.190;2024-01-30T06:26:31;43.70;;;15.70;;
41705;SDS011;27385;51.096;17.190;2024-01-30T06:29:23;41.20;;;16.20;;
41705;SDS011;27385;51.096;17.190;2024-01-30T06:32:15;43.50;;;15.40;;
41705;SDS011;27385;51.096;17.190;2024-01-30T06:35:06;40.60;;;16.00;;
41705;SDS011;27385;51.096;17.190;2024-01-30T06:37:58;40.00;;;16.30;;
41705;SDS011;27385;51.096;17.190;2024-01-30T06:40:50;44.30;;;15.80;;
41705;SDS011;27385;51.096;17.190;2024-01-30T06:43:41;40.60;;;16.40;;
41705;SDS011;27385;51.096;17.190;2024-01-30T06:46:32;42.40;;;15.20;;
41705;SDS011;27385;51.096;17.190;2024-01-30T06:49:24;44.10;;;16.80;;
41705;SDS011;27385;51.096;17.190;2024-01-30T06:52:15;57.10;;;18.10;;
41705;SDS011;27385;51.096;17.190;2024-01-30T06:55:07;65.00;;;22.00;;
41705;SDS011;27385;51.096;17.190;2024-01-30T06:57:58;63.00;;;21.30;;
41705;SDS011;27385;51.096;17.190;2024-01-30T07:00:49;61.30;;;21.50;;
41705;SDS011;27385;51.096;17.190;2024-01-30T07:03:40;67.50;;;23.90;;
41705;SDS011;27385;51.096;17.190;2024-01-30T07:06:31;106.70;;;42.80;;
41705;SDS011;27385;51.096;17.190;2024-01-30T07:09:22;191.20;;;76.40;;
41705;SDS011;27385;51.096;17.190;2024-01-30T07:12:13;202.30;;;83.20;;
41705;SDS011;27385;51.096;17.190;2024-01-30T07:15:05;201.50;;;83.70;;
41705;SDS011;27385;51.096;17.190;2024-01-30T07:17:57;180.50;;;71.30;;
41705;SDS011;27385;51.096;17.190;2024-01-30T07:20:47;159.70;;;63.60;;
41705;SDS011;27385;51.096;17.190;2024-01-30T07:23:38;144.60;;;56.20;;
41705;SDS011;27385;51.096;17.190;2024-01-30T07:26:30;94.80;;;39.10;;
41705;SDS011;27385;51.096;17.190;2024-01-30T07:29:21;79.10;;;32.60;;
41705;SDS011;27385;51.096;17.190;2024-01-30T07:32:12;70.80;;;27.00;;
41705;SDS011;27385;51.096;17.190;2024-01-30T07:35:04;61.90;;;22.40;;
41705;SDS011;27385;51.096;17.190;2024-01-30T07:37:55;51.70;;;19.90;;
41705;SDS011;27385;51.096;17.190;2024-01-30T07:40:46;40.60;;;13.50;;
41705;SDS011;27385;51.096;17.190;2024-01-30T07:43:39;33.30;;;11.60;;
41705;SDS011;27385;51.096;17.190;2024-01-30T07:46:30;27.60;;;9.10;;
41705;SDS011;27385;51.096;17.190;2024-01-30T07:49:22;26.70;;;8.10;;
41705;SDS011;27385;51.096;17.190;2024-01-30T07:52:13;27.80;;;6.80;;
41705;SDS011;27385;51.096;17.190;2024-01-30T07:55:04;23.70;;;5.60;;
41705;SDS011;27385;51.096;17.190;2024-01-30T07:57:56;21.30;;;6.40;;
41705;SDS011;27385;51.096;17.190;2024-01-30T08:00:48;19.40;;;4.70;;
41705;SDS011;27385;51.096;17.190;2024-01-30T08:03:40;16.60;;;4.40;;
41705;SDS011;27385;51.096;17.190;2024-01-30T08:06:32;18.70;;;4.30;;
41705;SDS011;27385;51.096;17.190;2024-01-30T08:09:23;21.80;;;4.70;;
41705;SDS011;27385;51.096;17.190;2024-01-30T08:12:14;22.30;;;4.50;;
41705;SDS011;27385;51.096;17.190;2024-01-30T08:15:06;16.00;;;3.40;;
41705;SDS011;27385;51.096;17.190;2024-01-30T08:17:58;13.50;;;3.30;;
41705;SDS011;27385;51.096;17.190;2024-01-30T08:20:51;16.10;;;3.60;;
41705;SDS011;27385;51.096;17.190;2024-01-30T08:23:42;16.30;;;3.70;;
41705;SDS011;27385;51.096;17.190;2024-01-30T08:26:33;14.80;;;4.20;;
41705;SDS011;27385;51.096;17.190;2024-01-30T08:29:25;15.90;;;2.80;;
41705;SDS011;27385;51.096;17.190;2024-01-30T08:32:16;14.30;;;3.60;;
41705;SDS011;27385;51.096;17.190;2024-01-30T08:35:08;13.90;;;2.50;;
41705;SDS011;27385;51.096;17.190;2024-01-30T08:38:01;16.30;;;2.90;;
41705;SDS011;27385;51.096;17.190;2024-01-30T08:40:54;13.30;;;3.20;;
41705;SDS011;27385;51.096;17.190;2024-01-30T08:43:45;14.00;;;3.40;;
41705;SDS011;27385;51.096;17.190;2024-01-30T08:46:35;13.90;;;3.50;;
41705;SDS011;27385;51.096;17.190;2024-01-30T08:49:27;12.70;;;2.60;;
41705;SDS011;27385;51.096;17.190;2024-01-30T08:52:18;16.20;;;3.00;;
41705;SDS011;27385;51.096;17.190;2024-01-30T08:55:09;15.60;;;3.30;;
41705;SDS011;27385;51.096;17.190;2024-01-30T08:58:00;11.80;;;3.20;;
41705;SDS011;27385;51.096;17.190;2024-01-30T09:00:52;13.80;;;2.30;;
41705;SDS011;27385;51.096;17.190;2024-01-30T09:06:34;16.20;;;3.60;;
41705;SDS011;27385;51.096;17.190;2024-01-30T09:09:27;13.10;;;2.50;;
41705;SDS011;27385;51.096;17.190;2024-01-30T09:12:18;11.40;;;2.60;;
41705;SDS011;27385;51.096;17.190;2024-01-30T09:17:58;11.10;;;2.20;;
41705;SDS011;27385;51.096;17.190;2024-01-30T09:20:49;14.70;;;2.60;;
41705;SDS011;27385;51.096;17.190;2024-01-30T09:23:39;12.60;;;2.30;;
41705;SDS011;27385;51.096;17.190;2024-01-30T09:26:30;17.00;;;2.80;;
41705;SDS011;27385;51.096;17.190;2024-01-30T09:29:21;10.50;;;2.50;;
41705;SDS011;27385;51.096;17.190;2024-01-30T09:32:11;11.90;;;2.50;;
41705;SDS011;27385;51.096;17.190;2024-01-30T09:35:02;12.80;;;2.30;;
41705;SDS011;27385;51.096;17.190;2024-01-30T09:37:53;10.90;;;2.90;;
41705;SDS011;27385;51.096;17.190;2024-01-30T09:40:46;13.00;;;2.50;;
41705;SDS011;27385;51.096;17.190;2024-01-30T09:43:44;11.50;;;2.30;;
41705;SDS011;27385;51.096;17.190;2024-01-30T09:46:39;10.70;;;2.10;;
41705;SDS011;27385;51.096;17.190;2024-01-30T09:49:31;13.70;;;2.30;;
41705;SDS011;27385;51.096;17.190;2024-01-30T09:52:22;9.70;;;2.10;;
41705;SDS011;27385;51.096;17.190;2024-01-30T09:55:13;10.00;;;1.50;;
41705;SDS011;27385;51.096;17.190;2024-01-30T09:58:04;12.00;;;2.20;;
41705;SDS011;27385;51.096;17.190;2024-01-30T10:00:56;11.90;;;2.10;;
41705;SDS011;27385;51.096;17.190;2024-01-30T10:03:47;11.80;;;1.90;;
41705;SDS011;27385;51.096;17.190;2024-01-30T10:06:39;11.30;;;1.90;;
41705;SDS011;27385;51.096;17.190;2024-01-30T10:09:32;13.90;;;2.10;;
41705;SDS011;27385;51.096;17.190;2024-01-30T10:12:27;12.10;;;2.10;;
41705;SDS011;27385;51.096;17.190;2024-01-30T10:15:18;11.70;;;2.50;;
41705;SDS011;27385;51.096;17.190;2024-01-30T10:18:10;10.10;;;1.40;;
41705;SDS011;27385;51.096;17.190;2024-01-30T10:21:01;6.60;;;1.50;;
41705;SDS011;27385;51.096;17.190;2024-01-30T10:26:43;10.20;;;2.00;;
41705;SDS011;27385;51.096;17.190;2024-01-30T10:29:34;10.30;;;1.60;;
41705;SDS011;27385;51.096;17.190;2024-01-30T10:32:26;12.40;;;2.00;;
41705;SDS011;27385;51.096;17.190;2024-01-30T10:35:17;10.30;;;2.20;;
41705;SDS011;27385;51.096;17.190;2024-01-30T10:38:08;11.60;;;2.00;;
41705;SDS011;27385;51.096;17.190;2024-01-30T10:41:02;14.30;;;2.50;;
41705;SDS011;27385;51.096;17.190;2024-01-30T10:43:57;11.70;;;1.80;;
41705;SDS011;27385;51.096;17.190;2024-01-30T10:46:53;9.50;;;1.80;;
41705;SDS011;27385;51.096;17.190;2024-01-30T10:52:42;13.10;;;1.60;;
41705;SDS011;27385;51.096;17.190;2024-01-30T10:55:33;12.80;;;2.10;;
41705;SDS011;27385;51.096;17.190;2024-01-30T10:58:25;8.60;;;1.70;;
41705;SDS011;27385;51.096;17.190;2024-01-30T11:01:17;10.50;;;1.90;;
41705;SDS011;27385;51.096;17.190;2024-01-30T11:04:10;10.20;;;1.80;;
41705;SDS011;27385;51.096;17.190;2024-01-30T11:07:01;9.70;;;2.10;;
41705;SDS011;27385;51.096;17.190;2024-01-30T11:10:03;9.30;;;1.70;;
41705;SDS011;27385;51.096;17.190;2024-01-30T11:12:57;10.00;;;2.20;;
41705;SDS011;27385;51.096;17.190;2024-01-30T11:15:48;9.10;;;2.10;;
41705;SDS011;27385;51.096;17.190;2024-01-30T11:18:39;13.00;;;2.60;;
41705;SDS011;27385;51.096;17.190;2024-01-30T11:21:30;8.60;;;1.90;;
41705;SDS011;27385;51.096;17.190;2024-01-30T11:24:21;9.30;;;1.90;;
41705;SDS011;27385;51.096;17.190;2024-01-30T11:27:12;10.00;;;1.70;;
41705;SDS011;27385;51.096;17.190;2024-01-30T11:30:04;10.70;;;2.40;;
41705;SDS011;27385;51.096;17.190;2024-01-30T11:33:04;13.00;;;2.10;;
41705;SDS011;27385;51.096;17.190;2024-01-30T11:35:59;9.00;;;1.90;;
41705;SDS011;27385;51.096;17.190;2024-01-30T11:38:50;14.20;;;2.10;;
41705;SDS011;27385;51.096;17.190;2024-01-30T11:41:41;10.30;;;2.00;;
41705;SDS011;27385;51.096;17.190;2024-01-30T11:44:32;12.20;;;1.90;;
41705;SDS011;27385;51.096;17.190;2024-01-30T11:47:23;9.90;;;2.00;;
41705;SDS011;27385;51.096;17.190;2024-01-30T11:50:14;8.90;;;1.70;;
41705;SDS011;27385;51.096;17.190;2024-01-30T11:53:06;13.00;;;2.50;;
41705;SDS011;27385;51.096;17.190;2024-01-30T11:55:58;9.80;;;2.00;;
41705;SDS011;27385;51.096;17.190;2024-01-30T11:58:49;11.90;;;2.30;;
41705;SDS011;27385;51.096;17.190;2024-01-30T12:01:41;12.50;;;2.50;;
41705;SDS011;27385;51.096;17.190;2024-01-30T12:04:32;9.40;;;1.50;;
41705;SDS011;27385;51.096;17.190;2024-01-30T12:07:23;9.70;;;1.80;;
41705;SDS011;27385;51.096;17.190;2024-01-30T12:10:13;9.90;;;1.90;;
41705;SDS011;27385;51.096;17.190;2024-01-30T12:13:05;12.10;;;2.60;;
41705;SDS011;27385;51.096;17.190;2024-01-30T12:15:56;14.10;;;2.40;;
41705;SDS011;27385;51.096;17.190;2024-01-30T12:18:47;11.60;;;1.80;;
41705;SDS011;27385;51.096;17.190;2024-01-30T12:21:38;10.70;;;1.90;;
41705;SDS011;27385;51.096;17.190;2024-01-30T12:24:29;8.90;;;2.20;;
41705;SDS011;27385;51.096;17.190;2024-01-30T12:27:21;9.10;;;2.00;;
41705;SDS011;27385;51.096;17.190;2024-01-30T12:30:13;10.50;;;1.90;;
41705;SDS011;27385;51.096;17.190;2024-01-30T12:33:05;12.70;;;2.90;;
41705;SDS011;27385;51.096;17.190;2024-01-30T12:35:57;10.70;;;2.00;;
41705;SDS011;27385;51.096;17.190;2024-01-30T12:38:53;11.50;;;2.50;;
41705;SDS011;27385;51.096;17.190;2024-01-30T12:41:46;10.20;;;2.90;;
41705;SDS011;27385;51.096;17.190;2024-01-30T12:44:37;12.10;;;2.20;;
41705;SDS011;27385;51.096;17.190;2024-01-30T12:47:28;12.70;;;2.00;;
41705;SDS011;27385;51.096;17.190;2024-01-30T12:50:19;9.90;;;2.30;;
41705;SDS011;27385;51.096;17.190;2024-01-30T12:53:10;9.80;;;2.00;;
41705;SDS011;27385;51.096;17.190;2024-01-30T12:56:01;8.50;;;1.70;;
41705;SDS011;27385;51.096;17.190;2024-01-30T12:58:52;9.10;;;2.20;;
41705;SDS011;27385;51.096;17.190;2024-01-30T13:01:43;10.60;;;1.90;;
41705;SDS011;27385;51.096;17.190;2024-01-30T13:04:34;11.90;;;2.10;;
41705;SDS011;27385;51.096;17.190;2024-01-30T13:07:25;12.70;;;2.20;;
41705;SDS011;27385;51.096;17.190;2024-01-30T13:10:17;14.50;;;2.60;;
41705;SDS011;27385;51.096;17.190;2024-01-30T13:13:07;10.20;;;2.00;;
41705;SDS011;27385;51.096;17.190;2024-01-30T13:16:01;10.10;;;1.90;;
41705;SDS011;27385;51.096;17.190;2024-01-30T13:18:53;15.40;;;2.60;;
41705;SDS011;27385;51.096;17.190;2024-01-30T13:21:44;13.00;;;2.50;;
41705;SDS011;27385;51.096;17.190;2024-01-30T13:24:35;9.10;;;2.00;;
41705;SDS011;27385;51.096;17.190;2024-01-30T13:30:15;11.90;;;2.60;;
41705;SDS011;27385;51.096;17.190;2024-01-30T13:33:06;10.50;;;2.20;;
41705;SDS011;27385;51.096;17.190;2024-01-30T13:35:57;12.10;;;3.00;;
41705;SDS011;27385;51.096;17.190;2024-01-30T13:38:47;13.90;;;2.30;;
41705;SDS011;27385;51.096;17.190;2024-01-30T13:41:39;11.90;;;2.40;;
41705;SDS011;27385;51.096;17.190;2024-01-30T13:44:30;11.00;;;2.20;;
41705;SDS011;27385;51.096;17.190;2024-01-30T13:47:22;16.00;;;2.70;;
41705;SDS011;27385;51.096;17.190;2024-01-30T13:50:14;13.60;;;2.80;;
41705;SDS011;27385;51.096;17.190;2024-01-30T13:53:05;15.00;;;3.30;;
41705;SDS011;27385;51.096;17.190;2024-01-30T13:55:56;11.00;;;2.40;;
41705;SDS011;27385;51.096;17.190;2024-01-30T13:58:47;12.80;;;2.80;;
41705;SDS011;27385;51.096;17.190;2024-01-30T14:01:39;12.70;;;3.00;;
41705;SDS011;27385;51.096;17.190;2024-01-30T14:04:30;13.40;;;2.90;;
41705;SDS011;27385;51.096;17.190;2024-01-30T14:07:21;27.00;;;4.60;;
41705;SDS011;27385;51.096;17.190;2024-01-30T14:10:14;15.70;;;3.40;;
41705;SDS011;27385;51.096;17.190;2024-01-30T14:13:06;12.40;;;3.30;;
41705;SDS011;27385;51.096;17.190;2024-01-30T14:15:57;14.10;;;3.10;;
41705;SDS011;27385;51.096;17.190;2024-01-30T14:18:48;15.10;;;3.10;;
41705;SDS011;27385;51.096;17.190;2024-01-30T14:21:39;14.80;;;3.90;;
41705;SDS011;27385;51.096;17.190;2024-01-30T14:24:30;15.70;;;4.20;;
41705;SDS011;27385;51.096;17.190;2024-01-30T14:27:21;18.60;;;4.20;;
41705;SDS011;27385;51.096;17.190;2024-01-30T14:30:13;16.20;;;4.40;;
41705;SDS011;27385;51.096;17.190;2024-01-30T14:33:04;16.50;;;3.10;;
41705;SDS011;27385;51.096;17.190;2024-01-30T14:35:55;12.60;;;3.80;;
41705;SDS011;27385;51.096;17.190;2024-01-30T14:38:47;18.80;;;4.90;;
41705;SDS011;27385;51.096;17.190;2024-01-30T14:41:39;17.30;;;3.10;;
41705;SDS011;27385;51.096;17.190;2024-01-30T14:44:30;16.00;;;4.00;;
41705;SDS011;27385;51.096;17.190;2024-01-30T14:47:22;17.10;;;3.70;;
41705;SDS011;27385;51.096;17.190;2024-01-30T14:50:13;16.00;;;3.90;;
41705;SDS011;27385;51.096;17.190;2024-01-30T14:53:05;22.00;;;4.60;;
41705;SDS011;27385;51.096;17.190;2024-01-30T14:55:56;13.90;;;3.90;;
41705;SDS011;27385;51.096;17.190;2024-01-30T14:58:47;14.70;;;4.50;;
41705;SDS011;27385;51.096;17.190;2024-01-30T15:01:38;16.50;;;4.60;;
41705;SDS011;27385;51.096;17.190;2024-01-30T15:04:29;19.00;;;5.10;;
41705;SDS011;27385;51.096;17.190;2024-01-30T15:07:20;17.70;;;4.60;;
41705;SDS011;27385;51.096;17.190;2024-01-30T15:10:12;15.00;;;4.40;;
41705;SDS011;27385;51.096;17.190;2024-01-30T15:13:03;17.20;;;4.80;;
41705;SDS011;27385;51.096;17.190;2024-01-30T15:15:54;19.20;;;4.70;;
41705;SDS011;27385;51.096;17.190;2024-01-30T15:18:46;17.60;;;4.80;;
41705;SDS011;27385;51.096;17.190;2024-01-30T15:21:37;15.60;;;4.70;;
41705;SDS011;27385;51.096;17.190;2024-01-30T15:24:28;18.30;;;4.90;;
41705;SDS011;27385;51.096;17.190;2024-01-30T15:27:20;22.50;;;4.90;;
41705;SDS011;27385;51.096;17.190;2024-01-30T15:30:12;21.10;;;5.30;;
41705;SDS011;27385;51.096;17.190;2024-01-30T15:33:04;24.40;;;5.80;;
41705;SDS011;27385;51.096;17.190;2024-01-30T15:35:54;21.50;;;6.30;;
41705;SDS011;27385;51.096;17.190;2024-01-30T15:38:46;29.20;;;7.00;;
41705;SDS011;27385;51.096;17.190;2024-01-30T15:41:37;22.60;;;5.90;;
41705;SDS011;27385;51.096;17.190;2024-01-30T15:44:28;21.80;;;6.20;;
41705;SDS011;27385;51.096;17.190;2024-01-30T15:47:20;18.60;;;6.20;;
41705;SDS011;27385;51.096;17.190;2024-01-30T15:50:11;18.20;;;4.80;;
41705;SDS011;27385;51.096;17.190;2024-01-30T15:53:02;29.00;;;7.60;;
41705;SDS011;27385;51.096;17.190;2024-01-30T15:58:42;23.50;;;6.60;;
41705;SDS011;27385;51.096;17.190;2024-01-30T16:01:37;21.30;;;5.30;;
41705;SDS011;27385;51.096;17.190;2024-01-30T16:04:28;25.00;;;7.30;;
41705;SDS011;27385;51.096;17.190;2024-01-30T16:07:19;25.90;;;6.70;;
41705;SDS011;27385;51.096;17.190;2024-01-30T16:10:10;23.80;;;7.90;;
41705;SDS011;27385;51.096;17.190;2024-01-30T16:13:04;25.40;;;8.50;;
41705;SDS011;27385;51.096;17.190;2024-01-30T16:15:54;22.90;;;7.50;;
41705;SDS011;27385;51.096;17.190;2024-01-30T16:18:45;17.30;;;6.50;;
41705;SDS011;27385;51.096;17.190;2024-01-30T16:21:36;23.50;;;6.80;;
41705;SDS011;27385;51.096;17.190;2024-01-30T16:24:27;25.30;;;8.30;;
41705;SDS011;27385;51.096;17.190;2024-01-30T16:27:18;27.70;;;8.20;;
41705;SDS011;27385;51.096;17.190;2024-01-30T16:30:10;24.50;;;8.10;;
41705;SDS011;27385;51.096;17.190;2024-01-30T16:33:01;22.60;;;9.50;;
41705;SDS011;27385;51.096;17.190;2024-01-30T16:35:53;24.20;;;8.20;;
41705;SDS011;27385;51.096;17.190;2024-01-30T16:38:44;30.90;;;8.90;;
41705;SDS011;27385;51.096;17.190;2024-01-30T16:41:35;25.50;;;8.50;;
41705;SDS011;27385;51.096;17.190;2024-01-30T16:44:27;28.60;;;9.00;;
41705;SDS011;27385;51.096;17.190;2024-01-30T16:47:18;24.30;;;9.20;;
41705;SDS011;27385;51.096;17.190;2024-01-30T16:50:09;24.50;;;8.80;;
41705;SDS011;27385;51.096;17.190;2024-01-30T16:52:59;27.00;;;9.20;;
41705;SDS011;27385;51.096;17.190;2024-01-30T16:55:50;23.80;;;8.10;;
41705;SDS011;27385;51.096;17.190;2024-01-30T16:58:41;22.40;;;8.10;;
41705;SDS011;27385;51.096;17.190;2024-01-30T17:01:32;28.30;;;10.30;;